SBJP/JPA METAR and TAF weather

Enter ICAO airport designator
Station Type Date Time Source
SBJP METAR 2020/05/29 20:00 UTC NOAA

SBJP 292000Z 16008KT 9999 SCT020 BKN070 26/22 Q1013


Station Type Date Time Source
SBJP Decoded METAR 2020/05/29 20:00 UTC NOAA

Joao Pessoa, Brazil (SBJP) 07-06S 034-52W
May 29, 2020 - 04:00 PM EDT / 2020.05.29 2000 UTC
Wind: from the SSE (160 degrees) at 9 MPH (8 KT):0
Visibility: greater than 7 mile(s):0
Sky conditions: mostly cloudy
Temperature: 78 F (26 C)
Dew Point: 71 F (22 C)
Relative Humidity: 78%
Pressure (altimeter): 29.91 in. Hg (1013 hPa)
ob: SBJP 292000Z 16008KT 9999 SCT020 BKN070 26/22 Q1013
cycle: 20

Station Type Date Time Source
SBJP TAF 2020/05/29 18:33 UTC NOAA

TAF TAF SBJP 291500Z 2918/3018 11007KT 9999 SCT020 TX29/2918Z TN24/3007Z
BECMG 2922/2924 18004KT FEW020
TEMPO 3009/3011 5000 -RA BKN012
BECMG 3012/3014 11012KT BKN020
RMK PEA

Example: see airport list